X  Zatvori METAR podaci zračne luke     KSWO Stillwater Regional Airport
Temperatura
12°C Temperatura
2°C Točka rosišta
51% Vlaga



Vjetar
16 MPS
26 KM/S
7 M/S
14 Čvorovi



330°
SSZ
Trenutna situacija

Vedro Vedro
Tlak zraka 1006.82 (hPa) - 29.73 (inHg)
Vidljivost 10 (milje) - 16.1 (km)
Zračna luka
Kôd zračne luke KSWO

Lokacija: Stillwater Regional Airport
Udaljenost: 4 (mi)

Metar:
KSWO 291953Z 33014G24KT 10SM CLR 12/02 A2973 RMK AO2 SLP063 T01170017

Vrijeme: 11-29-2022 1:53 pm CST